Last 30 Days

Scotts Valley

Daily Data | America/Los_Angeles
as of 5/2/26 7:04 PM PDT
Date Daily Max Temp (°F) Time of Max Temp Daily Min Temp (°F) Time of Min Temp Daily Rain (In) Month Precip (In) Season Precip (In) Daily Max Wind (mph) Time of Max Wind Max Wind Dir (°) Wind Spd (mph) Dew Pt (°F) Daily Max RH (%) Daily Min RH (%) Daily Leaf Wet (Hrs) Degree Hrs (hrs) Chilling <=45F (hrs) Chill Hrs 32-45F (hrs) Utah Chilling (Units) Chill Portions Hrs <= 32F (hrs) Hrs <= 28F (hrs) GDDs (DL) GDDs (Mx/Mn) Seas GDDs (DL) Seas GDDs (Smpl) Hrs 70-85F (hrs) Hrs > 95F (hrs) Powdery Mildew Stress (pts) Bee Hrs Today (Hrs) Storm Total (In) Daily Max Rain Intensity (In/Hr) Time of Max Rain Intensity Max 1 Min Rain (In) Max 1 Min Rain Time Max 15 Min Rain (In) Max 15 Min Precip Time Max 60 Min Rain (In) Max 60 Min Rain Time MinBV Day (V)
5/1/26 83.4 1512 40.4 0626 0.00 0.00 26.00 8.7 1823 WSW | 238 1.3 49.4 100 28 3.4 129.2 6.2 6.2 -4.5 - 0.0 0.0 14.0 11.9 198 94 9.51 0.00 60 11.8 - - - - - - - - - 12.3
4/30/26 84.2 1528 35.9 0611 0.00 3.76 26.00 12.7 1800 WNW | 285 1.1 44.9 100 27 3.0 122.5 6.5 6.5 -2.0 - 0.0 0.0 13.1 10.0 184 82 9.04 0.00 40 11.4 - - - - - - - - - 12.3
4/29/26 79.5 1556 35.4 0615 0.00 3.76 26.00 12.9 1620 WSW | 254 1.3 42.9 100 26 5.0 81.7 8.1 8.1 -2.0 85 0.0 0.0 11.2 7.5 171 72 7.67 0.00 20 11.4 - - - - - - - - - 12.3
4/28/26 72.4 1611 33.9 0627 0.00 3.76 26.00 10.1 1744 WNW | 295 1.2 42.5 100 33 5.6 24.7 8.7 8.7 1.5 85 0.0 0.0 7.9 3.2 160 65 0.98 0.00 0 10.8 - - - - - - - - - 12.4
4/27/26 66.6 1523 40.5 0048 0.00 3.76 26.00 13.2 1643 NNW | 342 1.5 43.4 97 39 0.0 0.0 5.1 5.1 8.0 84 0.0 0.0 5.0 3.5 152 61 0.00 0.00 0 10.3 - - - - - - - - - 12.4
4/26/26 61.8 1531 44.1 0654 0.00 3.76 26.00 14.5 1713 W | 260 2.1 42.1 92 49 0.0 0.0 1.1 1.1 12.5 84 0.0 0.0 2.9 3.0 147 58 0.00 0.00 0 7.4 - - - - - - - - - 12.4
4/25/26 65.9 1446 38.5 0346 0.00 3.76 26.00 16.2 1829 SW | 227 2.1 44.7 100 52 7.1 0.0 6.8 6.8 9.0 83 0.0 0.0 4.1 2.2 144 55 0.00 0.00 0 8.5 - - - - - - - - - 12.4
4/24/26 74.1 1533 35.6 0636 0.00 3.76 26.00 13.5 1659 SW | 235 1.6 44.5 100 26 7.6 38.8 8.5 8.5 1.5 83 0.0 0.0 8.5 4.9 140 53 4.24 0.00 0 11.0 - - - - - - - - - 12.4
4/23/26 72.4 1625 31.3 0637 0.00 3.76 26.00 9.4 1801 W | 259 1.3 41.1 100 30 6.5 24.9 9.1 7.5 -1.5 83 1.6 0.0 7.5 1.8 131 48 2.32 0.00 0 10.5 - - - - - - - - - 12.4
4/22/26 61.5 1456 37.6 0059 0.00 3.76 26.00 12.0 1519 E | 81 1.6 43.6 100 50 8.8 0.0 10.4 10.4 11.0 83 0.0 0.0 3.6 0.0 124 46 0.00 0.00 0 8.6 - - - - - - - - - 12.3
4/21/26 58.9 1655 39.0 2351 0.31 3.76 26.00 15.8 1454 WSW | 242 2.1 44.6 100 50 11.2 0.0 4.5 4.5 15.0 83 0.0 0.0 1.6 0.0 120 46 0.00 0.00 0 2.9 1.24 0.72 0900 0.01 0534 0.10 0908 0.27 0940 12.3
4/20/26 52.6 1318 43.3 0404 0.93 3.45 25.69 15.6 1152 ESE | 108 1.6 45.9 100 58 21.4 0.0 3.9 3.9 17.0 82 0.0 0.0 0.3 0.0 119 46 0.00 0.00 0 0.0 0.93 0.34 1549 0.01 0658 0.05 1231 0.14 1347 12.4
4/19/26 71.2 1421 33.4 0643 0.00 2.52 24.76 13.9 1443 S | 176 1.5 31.8 100 12 3.4 17.1 7.6 7.6 3.5 81 0.0 0.0 6.8 2.3 118 46 0.91 0.00 0 10.1 - - - - - - - - - 12.4
4/18/26 75.2 1514 30.7 0630 0.00 2.52 24.76 10.3 1221 ENE | 74 1.3 38.3 100 24 3.9 45.2 8.3 6.3 -3.5 81 2.0 0.0 8.7 3.0 112 44 4.86 0.00 0 10.6 - - - - - - - - - 12.4
4/17/26 72.2 1521 26.8 0647 0.00 2.52 24.76 10.3 1337 E | 79 1.4 31.1 99 14 1.3 24.1 10.8 5.5 -2.5 81 5.3 1.5 7.2 0.0 103 41 1.63 0.00 10 10.1 - - - - - - - - - 12.2
4/16/26 66.8 1629 33.1 0633 0.00 2.52 24.76 11.3 1637 SE | 142 1.7 34.6 100 21 6.3 1.9 11.3 11.3 8.0 80 0.0 0.0 5.2 0.0 96 41 0.00 0.00 20 9.1 - - - - - - - - - 12.4
4/15/26 64.4 1637 33.2 0555 0.00 2.52 24.76 18.1 1531 W | 271 1.6 42.7 100 50 9.6 0.0 9.2 9.2 7.5 79 0.0 0.0 4.1 0.0 90 41 0.00 0.00 30 8.2 - - - - - - - - - 12.4
4/14/26 68.8 1621 30.8 0630 0.00 2.52 24.76 11.8 1546 WSW | 249 1.3 40.9 100 38 6.3 6.3 9.9 7.7 2.0 79 2.2 0.0 5.4 0.0 86 41 0.00 0.00 40 9.1 - - - - - - - - - 12.4
4/13/26 66.1 1526 31.5 0514 0.00 2.52 24.76 11.8 1743 W | 265 1.1 40.4 100 40 8.4 0.0 10.4 9.7 7.5 78 0.7 0.0 3.8 0.0 81 41 0.00 0.00 50 8.1 - - - - - - - - - 12.5
4/12/26 59.1 1620 38.8 0059 0.64 2.52 24.76 15.0 0749 SW | 217 2.1 42.5 100 49 11.8 0.0 14.7 14.7 18.5 77 0.0 0.0 0.9 0.0 77 41 0.00 0.00 60 1.7 2.46 0.80 0847 0.01 0108 0.08 0851 0.17 0937 12.4
4/11/26 53.8 1451 41.0 2158 0.56 1.88 24.12 20.5 1616 SW | 217 2.1 46.1 100 74 21.8 0.0 8.6 8.6 16.5 77 0.0 0.0 0.4 0.0 76 41 0.00 0.00 70 0.0 1.82 0.68 1609 0.01 0805 0.06 1616 0.14 1611 12.4
4/10/26 58.9 1202 43.4 0317 1.26 1.32 23.56 9.9 1218 ENE | 72 1.1 49.3 100 71 18.7 0.0 1.4 1.4 11.0 76 0.0 0.0 1.7 1.2 76 41 0.00 0.00 80 1.6 1.26 1.90 1846 0.02 1303 0.17 1851 0.54 1908 12.4
4/9/26 71.3 1551 39.5 0631 0.00 0.06 22.30 15.8 1700 SW | 228 1.8 47.4 100 46 7.6 17.4 6.6 6.6 2.0 75 0.0 0.0 7.4 5.4 74 40 0.38 0.00 90 10.1 - - - - - - - - - 12.4
4/8/26 79.4 1542 39.0 0651 0.00 0.06 22.30 14.2 1657 WSW | 249 1.9 46.2 97 38 1.0 83.2 6.3 6.3 -1.5 75 0.0 0.0 11.1 9.2 67 34 8.04 0.00 100 10.5 - - - - - - - - - 12.4
4/7/26 78.6 1504 33.1 0652 0.00 0.06 22.30 14.5 1446 W | 280 1.6 37.8 100 16 5.2 73.7 7.1 7.1 -1.5 75 0.0 0.0 10.2 5.8 56 25 6.48 0.00 100 10.3 - - - - - - - - - 12.4
4/6/26 80.0 1436 33.5 0653 0.00 0.06 22.30 14.4 1553 WSW | 250 1.7 41.2 100 16 5.0 93.3 8.0 8.0 -2.5 75 0.0 0.0 11.5 6.7 45 19 7.99 0.00 100 10.5 - - - - - - - - - 12.4
4/5/26 81.3 1455 33.4 0506 0.00 0.06 22.30 10.3 1554 SW | 224 1.2 38.9 100 19 5.4 98.1 8.9 8.9 -2.5 75 0.0 0.0 11.4 7.4 34 12 8.07 0.00 90 10.4 - - - - - - - - - 12.4
4/4/26 80.1 1611 28.8 0644 0.00 0.06 22.30 14.6 1408 SSE | 152 1.5 35.3 100 18 3.7 84.4 9.5 5.5 -4.5 75 4.0 0.0 10.5 4.5 22 5 7.57 0.00 70 10.0 - - - - - - - - - 12.3
4/3/26 74.3 1749 26.7 0651 0.00 0.06 22.30 9.5 1310 ENE | 75 1.5 32.5 100 16 2.1 48.2 11.8 6.1 -2.5 75 5.8 1.4 7.9 0.5 12 1 5.64 0.00 50 9.4 - - - - - - - - - 12.3
4/2/26 64.0 1644 32.7 0052 0.02 0.06 22.30 12.1 1134 NNW | 340 1.9 37.2 100 34 5.4 0.0 11.1 11.1 12.0 74 0.0 0.0 3.3 0.0 4 0 0.00 0.00 60 7.2 - 0.09 0456 0.01 0450 0.02 0457 0.02 0457 12.4
Max 84.2 - 44.1 - 1.26 3.76 26.00 20.5 - - 2.1 49.4 100 74 21.8 129.2 14.7 14.7 18.5 85 5.8 1.5 14.0 11.9 - - 9.51 0.00 - 11.8 2.46 1.90 - 0.02 - 0.17 - 0.54 - 12.5
Avg - - - - - - - - - - 1.6 41.5 - - - - 8.0 7.3 4.4 79 0.7 0.1 6.6 3.1 - - 2.84 0.00 - 8.4 1.54 - - - - - - - - -
Min 52.6 - 26.7 - 0.00 0.00 22.30 8.7 - - 1.1 31.1 92 12 0.0 0.0 1.1 1.1 -4.5 74 0.0 0.0 0.3 0.0 - - 0.00 0.00 - 0.0 0.93 0.09 - 0.01 - 0.02 - 0.02 - 12.2
Total - - - - - - - - - - - - - - - - 240.4 218.9 133.0 - 21.5 2.9 197.2 94.0 - - 85.32 0.00 - 251.6 - - - - - - - - - -